createdAt,value
2022-12-25T00:01:17.670Z,58.91
2022-12-25T00:05:17.910Z,59.52
2022-12-25T00:09:18.050Z,60.10
2022-12-25T00:13:18.156Z,60.24
2022-12-25T00:17:20.801Z,60.54
2022-12-25T00:21:21.896Z,60.72
2022-12-25T00:25:22.118Z,61.23
2022-12-25T00:29:22.443Z,60.95
2022-12-25T00:33:26.223Z,60.74
2022-12-25T00:37:26.434Z,60.88
2022-12-25T00:41:39.774Z,60.01
2022-12-25T00:45:40.120Z,59.77
2022-12-25T00:49:43.012Z,60.52
2022-12-25T00:53:43.046Z,61.90
2022-12-25T00:57:43.082Z,62.04
2022-12-25T01:01:43.806Z,61.31
2022-12-25T01:05:56.284Z,60.72
2022-12-25T01:10:20.532Z,61.13
2022-12-25T01:14:20.708Z,61.13
2022-12-25T01:18:20.991Z,61.38
2022-12-25T01:22:23.629Z,61.74
2022-12-25T01:26:26.589Z,60.63
2022-12-25T01:30:26.693Z,60.47
2022-12-25T01:34:26.831Z,60.51
2022-12-25T01:38:29.769Z,60.86
2022-12-25T01:42:30.008Z,60.92
2022-12-25T01:46:30.433Z,60.73
2022-12-25T01:50:31.594Z,60.28
2022-12-25T01:54:42.197Z,60.15
2022-12-25T01:58:43.065Z,60.75
2022-12-25T02:02:47.167Z,60.83
2022-12-25T02:06:47.478Z,60.90
2022-12-25T02:10:50.625Z,61.05
2022-12-25T02:14:53.074Z,60.89
2022-12-25T02:19:00.723Z,60.26
2022-12-25T02:23:26.244Z,60.80
2022-12-25T02:32:08.434Z,62.20
2022-12-25T02:36:18.770Z,61.91
2022-12-25T02:40:25.386Z,61.81
2022-12-25T02:44:41.022Z,61.99
2022-12-25T02:49:06.866Z,61.84
2022-12-25T02:53:22.061Z,61.97
2022-12-25T02:57:40.723Z,62.15
2022-12-25T03:01:54.990Z,61.51
2022-12-25T03:06:17.223Z,62.26
2022-12-25T03:10:31.554Z,62.03
2022-12-25T03:14:44.704Z,62.03
2022-12-25T03:18:45.893Z,62.08
2022-12-25T03:23:02.952Z,61.71
2022-12-25T03:27:03.446Z,62.03
2022-12-25T03:31:17.748Z,61.25
2022-12-25T03:35:27.712Z,61.20
2022-12-25T03:39:54.400Z,61.68
2022-12-25T03:44:14.883Z,62.28
2022-12-25T03:48:28.845Z,61.82
2022-12-25T03:52:45.169Z,61.26
2022-12-25T03:57:01.373Z,61.81
2022-12-25T04:01:13.983Z,61.48
2022-12-25T04:05:26.559Z,62.13
2022-12-25T04:09:39.279Z,62.30
2022-12-25T04:13:54.392Z,62.86
2022-12-25T04:18:08.155Z,62.73
2022-12-25T04:22:20.766Z,63.15
2022-12-25T04:26:33.356Z,62.49
2022-12-25T04:30:48.616Z,63.00
2022-12-25T04:35:01.224Z,62.10
2022-12-25T04:39:01.299Z,61.96
2022-12-25T04:43:01.335Z,63.36
2022-12-25T04:47:10.724Z,62.74
2022-12-25T04:51:18.085Z,62.71
2022-12-25T04:55:18.938Z,62.75
2022-12-25T04:59:19.064Z,63.73
2022-12-25T05:03:21.728Z,64.11
2022-12-25T05:07:21.953Z,64.30
2022-12-25T05:11:22.267Z,63.80
2022-12-25T05:15:22.377Z,63.54
2022-12-25T05:19:25.040Z,63.64
2022-12-25T05:23:25.825Z,63.50
2022-12-25T05:27:25.945Z,63.26
2022-12-25T05:31:26.225Z,63.05
2022-12-25T05:35:29.028Z,63.63
2022-12-25T05:39:29.257Z,63.56
2022-12-25T05:43:29.759Z,63.03
2022-12-25T05:47:29.913Z,63.24
2022-12-25T05:51:33.435Z,63.14
2022-12-25T05:55:33.508Z,63.80
2022-12-25T05:59:35.041Z,63.20
2022-12-25T06:03:35.153Z,64.33
2022-12-25T06:07:37.969Z,63.18
2022-12-25T06:11:38.158Z,64.01
2022-12-25T06:15:41.443Z,64.86
2022-12-25T06:19:41.875Z,64.35
2022-12-25T06:23:45.614Z,64.45
2022-12-25T06:27:46.079Z,63.85
2022-12-25T06:31:46.425Z,63.60
2022-12-25T06:35:46.559Z,64.40
2022-12-25T06:39:50.004Z,63.51
2022-12-25T06:43:52.989Z,63.50
2022-12-25T06:47:53.072Z,63.77
2022-12-25T06:51:53.178Z,63.68
2022-12-25T06:55:56.150Z,64.27
2022-12-25T06:59:56.352Z,63.96
2022-12-25T07:04:01.457Z,64.29
2022-12-25T07:08:01.582Z,64.00
2022-12-25T07:12:10.927Z,63.30
2022-12-25T07:16:11.488Z,62.79
2022-12-25T07:20:12.777Z,63.27
2022-12-25T07:24:13.155Z,63.63
2022-12-25T07:28:15.874Z,63.42
2022-12-25T07:32:15.965Z,63.11
2022-12-25T07:36:17.853Z,64.58
2022-12-25T07:40:18.364Z,63.66
2022-12-25T07:44:21.598Z,63.76
2022-12-25T07:48:21.723Z,64.00
2022-12-25T07:52:21.850Z,63.43
2022-12-25T07:56:23.278Z,63.15
2022-12-25T08:00:29.788Z,63.61
2022-12-25T08:04:29.880Z,63.08
2022-12-25T08:08:30.072Z,63.27
2022-12-25T08:12:30.151Z,63.43
2022-12-25T08:16:32.916Z,63.66
2022-12-25T08:20:32.970Z,63.30
2022-12-25T08:24:33.315Z,63.04
2022-12-25T08:28:33.921Z,63.34
2022-12-25T08:32:38.090Z,62.95
2022-12-25T08:36:38.652Z,62.82
2022-12-25T08:40:38.959Z,62.33
2022-12-25T08:44:39.240Z,61.94
2022-12-25T08:48:45.242Z,61.34
2022-12-25T08:52:45.373Z,61.38
2022-12-25T08:56:45.562Z,61.57
2022-12-25T09:00:45.850Z,61.32
2022-12-25T09:04:48.717Z,61.10
2022-12-25T09:08:49.966Z,61.34
2022-12-25T09:12:50.304Z,60.65
2022-12-25T09:16:52.751Z,60.40
2022-12-25T09:21:04.335Z,61.34
2022-12-25T09:25:04.564Z,60.97
2022-12-25T09:29:04.689Z,62.06
2022-12-25T09:33:04.852Z,61.66
2022-12-25T09:37:07.610Z,61.37
2022-12-25T09:41:19.763Z,61.37
2022-12-25T09:45:28.291Z,61.21
2022-12-25T09:49:41.847Z,61.33
2022-12-25T09:53:52.895Z,59.80
2022-12-25T09:57:57.097Z,59.44
2022-12-25T10:02:52.120Z,59.38
2022-12-25T10:07:14.478Z,59.47
2022-12-25T10:11:39.807Z,59.22
2022-12-25T10:15:58.992Z,58.71
2022-12-25T10:20:13.296Z,59.45
2022-12-25T10:24:32.199Z,59.80
2022-12-25T10:28:43.360Z,59.71
2022-12-25T10:32:43.778Z,60.15
2022-12-25T10:36:46.509Z,58.87
2022-12-25T10:41:08.064Z,58.04
2022-12-25T10:45:13.027Z,57.48
2022-12-25T10:49:19.317Z,55.65
2022-12-25T10:53:27.339Z,56.23
2022-12-25T10:57:31.856Z,56.56
2022-12-25T11:01:36.249Z,55.40
2022-12-25T11:05:39.947Z,52.67
2022-12-25T11:09:40.822Z,50.23
2022-12-25T11:13:52.572Z,47.75
2022-12-25T11:17:55.671Z,46.90
2022-12-25T11:21:58.633Z,46.40
2022-12-25T11:26:00.603Z,47.68
2022-12-25T11:30:05.231Z,48.91
2022-12-25T11:34:22.290Z,52.15
2022-12-25T11:38:23.872Z,52.04
2022-12-25T11:42:29.950Z,53.11
2022-12-25T11:46:41.173Z,52.61
2022-12-25T11:50:49.694Z,51.45
2022-12-25T11:54:59.651Z,52.74
2022-12-25T11:59:16.396Z,52.31
2022-12-25T12:03:27.132Z,52.81
2022-12-25T12:07:35.469Z,53.38
2022-12-25T12:11:46.519Z,52.48
2022-12-25T12:15:50.036Z,51.77
2022-12-25T12:19:50.567Z,51.61
2022-12-25T12:23:59.853Z,49.90
2022-12-25T12:28:05.814Z,49.33
2022-12-25T12:32:22.980Z,48.24
2022-12-25T12:36:35.626Z,47.76
2022-12-25T12:40:44.538Z,48.71
2022-12-25T12:44:45.691Z,50.21
2022-12-25T12:48:48.881Z,50.67
2022-12-25T12:52:49.254Z,49.61
2022-12-25T12:57:03.115Z,49.34
2022-12-25T13:01:26.635Z,46.25
2022-12-25T13:05:41.480Z,45.90
2022-12-25T13:10:03.898Z,46.18
2022-12-25T13:14:07.941Z,47.70
2022-12-25T13:18:15.098Z,48.85
2022-12-25T13:22:28.454Z,48.13
2022-12-25T13:26:29.556Z,48.24
2022-12-25T13:30:32.672Z,48.57
2022-12-25T13:34:36.928Z,49.06
2022-12-25T13:38:37.478Z,49.54
2022-12-25T13:42:40.970Z,51.22
2022-12-25T13:46:44.580Z,50.53
2022-12-25T13:50:48.525Z,50.76
2022-12-25T13:55:03.953Z,49.67
2022-12-25T13:59:04.946Z,49.18
2022-12-25T14:03:10.192Z,50.86
2022-12-25T14:07:14.648Z,51.38
2022-12-25T14:11:20.605Z,51.96
2022-12-25T14:15:25.915Z,51.83
2022-12-25T14:19:34.647Z,51.55
2022-12-25T14:23:45.774Z,51.84
2022-12-25T14:27:52.848Z,52.21
2022-12-25T14:31:53.267Z,51.70
2022-12-25T14:35:56.626Z,51.86
2022-12-25T14:40:03.177Z,52.44
2022-12-25T14:44:06.895Z,52.45
2022-12-25T14:48:24.696Z,51.92
2022-12-25T14:52:45.104Z,52.82
2022-12-25T14:56:52.001Z,52.57
2022-12-25T15:01:00.462Z,53.46
2022-12-25T15:05:00.830Z,54.59
2022-12-25T15:09:06.788Z,54.16
2022-12-25T15:13:07.175Z,55.35
2022-12-25T15:17:07.584Z,55.33
2022-12-25T15:21:08.443Z,55.74
2022-12-25T15:25:15.166Z,56.14
2022-12-25T15:29:15.234Z,56.33
2022-12-25T15:33:18.648Z,56.09
2022-12-25T15:37:19.187Z,55.84
2022-12-25T15:41:39.793Z,56.22
2022-12-25T15:45:41.229Z,56.15
2022-12-25T15:49:42.200Z,56.67
2022-12-25T15:53:42.322Z,56.34
2022-12-25T15:57:48.629Z,56.39
2022-12-25T16:01:53.127Z,56.77
2022-12-25T16:05:53.360Z,57.65
2022-12-25T16:09:54.986Z,57.55
2022-12-25T16:13:57.781Z,57.26
2022-12-25T16:17:57.973Z,57.37
2022-12-25T16:21:58.628Z,58.39
2022-12-25T16:25:58.757Z,58.35
2022-12-25T16:30:01.551Z,58.79
2022-12-25T16:34:01.666Z,58.51
2022-12-25T16:38:02.700Z,58.80
2022-12-25T16:42:02.754Z,58.07
2022-12-25T16:46:13.002Z,58.44
2022-12-25T16:50:14.587Z,58.64
2022-12-25T16:54:14.695Z,58.70
2022-12-25T16:58:14.784Z,59.25
2022-12-25T17:02:21.784Z,59.49
2022-12-25T17:06:26.889Z,59.10
2022-12-25T17:10:26.964Z,59.03
2022-12-25T17:14:27.207Z,59.74
2022-12-25T17:18:30.022Z,59.54
2022-12-25T17:22:30.281Z,59.17
2022-12-25T17:26:31.043Z,59.13
2022-12-25T17:30:31.128Z,59.18
2022-12-25T17:34:33.827Z,59.29
2022-12-25T17:38:35.290Z,59.36
2022-12-25T17:42:36.016Z,58.96
2022-12-25T17:46:36.249Z,58.89
2022-12-25T17:50:41.411Z,58.82
2022-12-25T17:54:41.869Z,59.17
2022-12-25T17:58:42.235Z,59.03
2022-12-25T18:02:43.952Z,58.80
2022-12-25T18:06:46.824Z,58.92
2022-12-25T18:10:47.464Z,58.68
2022-12-25T18:14:47.706Z,58.45
2022-12-25T18:18:52.288Z,57.92
2022-12-25T18:22:55.595Z,58.20
2022-12-25T18:26:55.821Z,58.48
2022-12-25T18:30:55.937Z,58.33
2022-12-25T18:34:56.594Z,58.55
2022-12-25T18:39:00.280Z,58.60
2022-12-25T18:43:03.481Z,58.91
2022-12-25T18:47:04.052Z,58.65
2022-12-25T18:51:08.650Z,57.99
2022-12-25T18:55:13.185Z,57.24
2022-12-25T18:59:13.465Z,56.94
2022-12-25T19:03:13.773Z,57.30
2022-12-25T19:07:14.609Z,57.37
2022-12-25T19:11:18.983Z,57.24
2022-12-25T19:15:19.544Z,57.35
2022-12-25T19:19:19.734Z,57.49
2022-12-25T19:23:20.779Z,57.55
2022-12-25T19:27:23.662Z,58.44
2022-12-25T19:31:24.983Z,58.40
2022-12-25T19:35:25.356Z,57.75
2022-12-25T19:39:25.650Z,58.34
2022-12-25T19:43:29.131Z,58.64
2022-12-25T19:47:29.323Z,59.12
2022-12-25T19:51:33.248Z,58.94
2022-12-25T19:55:35.219Z,58.13
2022-12-25T19:59:38.082Z,58.20
2022-12-25T20:03:45.943Z,58.41
2022-12-25T20:07:46.624Z,58.54
2022-12-25T20:11:46.949Z,58.47
2022-12-25T20:15:49.802Z,58.45
2022-12-25T20:19:49.959Z,57.56
2022-12-25T20:23:52.538Z,57.01
2022-12-25T20:27:52.753Z,57.87
2022-12-25T20:31:55.612Z,57.53
2022-12-25T20:35:57.088Z,58.36
2022-12-25T20:39:57.552Z,58.04
2022-12-25T20:43:58.118Z,57.97
2022-12-25T20:48:02.487Z,58.55
2022-12-25T20:52:05.520Z,58.93
2022-12-25T20:56:07.214Z,59.59
2022-12-25T21:00:08.869Z,59.80
2022-12-25T21:04:16.228Z,60.78
2022-12-25T21:08:16.809Z,60.00
2022-12-25T21:12:16.921Z,59.82
2022-12-25T21:16:21.540Z,60.32
2022-12-25T21:20:24.312Z,60.39
2022-12-25T21:24:25.472Z,60.32
2022-12-25T21:28:27.243Z,60.39
2022-12-25T21:32:39.826Z,60.38
2022-12-25T21:36:42.605Z,60.27
2022-12-25T21:40:43.056Z,60.55
2022-12-25T21:44:43.229Z,59.96
2022-12-25T21:48:44.983Z,59.88
2022-12-25T21:52:47.967Z,59.73
2022-12-25T21:56:52.218Z,59.71
2022-12-25T22:00:52.389Z,60.36
2022-12-25T22:04:52.596Z,62.24
2022-12-25T22:08:53.249Z,62.54
2022-12-25T22:13:06.974Z,62.68
2022-12-25T22:17:20.418Z,62.15
2022-12-25T22:21:22.210Z,62.19
2022-12-25T22:25:26.191Z,62.33
2022-12-25T22:29:26.489Z,61.72
2022-12-25T22:33:28.058Z,61.62
2022-12-25T22:37:28.218Z,61.30
2022-12-25T22:41:33.662Z,61.38
2022-12-25T22:45:33.996Z,60.43
2022-12-25T22:49:34.429Z,59.77
2022-12-25T22:53:34.670Z,59.63
2022-12-25T22:57:38.108Z,59.84
2022-12-25T23:01:38.395Z,60.86
2022-12-25T23:05:38.540Z,61.86
2022-12-25T23:09:38.627Z,62.00
2022-12-25T23:13:53.793Z,62.17
2022-12-25T23:18:07.592Z,62.50
2022-12-25T23:22:20.635Z,62.75
2022-12-25T23:26:23.667Z,62.53
2022-12-25T23:30:26.415Z,63.29
2022-12-25T23:34:27.249Z,63.41
2022-12-25T23:38:27.432Z,63.06
2022-12-25T23:42:27.554Z,62.67
2022-12-25T23:46:30.227Z,61.97
2022-12-25T23:50:30.296Z,62.03
2022-12-25T23:54:33.249Z,62.49
2022-12-25T23:58:33.639Z,61.64
